Time;durP1;ratioP1;P1;durP2;ratioP2;P2;SDS_P1;SDS_P2;PMS_P1;PMS_P2;Temp;Humidity;BMP_temperature;BMP_pressure;BME280_temperature;BME280_humidity;BME280_pressure;Samples;Min_cycle;Max_cycle;Signal;HPM_P1;HPM_P2
2022/08/28 00:00:07;;;;;;;16.33;3.72;;;;;;;14.46;99.61;101439.53;4982543;28;20198;-49
2022/08/28 00:02:33;;;;;;;14.48;3.65;;;;;;;14.32;99.65;101441.94;4984438;28;20680;-49
2022/08/28 00:05:00;;;;;;;14.35;3.95;;;;;;;14.19;99.79;101458.66;4985487;28;20214;-49
2022/08/28 00:07:26;;;;;;;15.32;4.10;;;;;;;14.30;100.00;101449.22;4988151;28;20193;-46
2022/08/28 00:09:51;;;;;;;18.00;4.10;;;;;;;14.31;100.00;101456.38;4989599;28;20177;-47
2022/08/28 00:12:17;;;;;;;16.50;3.85;;;;;;;14.29;100.00;101463.66;4991493;28;20192;-51
2022/08/28 00:14:43;;;;;;;15.93;4.32;;;;;;;14.40;100.00;101451.44;4976425;28;20205;-47
2022/08/28 00:17:08;;;;;;;12.32;3.35;;;;;;;14.30;100.00;101460.00;4976330;28;20190;-47
2022/08/28 00:19:34;;;;;;;25.92;4.75;;;;;;;14.23;100.00;101456.69;4978218;28;20178;-48
2022/08/28 00:22:00;;;;;;;17.33;4.03;;;;;;;14.22;100.00;101463.91;4973737;28;20225;-48
2022/08/28 00:24:25;;;;;;;13.82;3.70;;;;;;;14.36;100.00;101465.13;4973448;28;20677;-52
2022/08/28 00:29:35;;;;;;;16.35;4.22;;;;;;;14.21;100.00;101456.78;4987690;28;20188;-50
2022/08/28 00:32:01;;;;;;;12.05;3.63;;;;;;;14.36;100.00;101459.72;4973821;28;20683;-48
2022/08/28 00:34:27;;;;;;;13.25;3.72;;;;;;;14.36;100.00;101470.50;4972569;28;21147;-49
2022/08/28 00:36:53;;;;;;;16.30;4.00;;;;;;;14.41;100.00;101460.44;4979737;28;20204;-49
2022/08/28 00:39:18;;;;;;;17.55;4.03;;;;;;;14.28;100.00;101462.78;4978030;28;20178;-49
2022/08/28 00:41:44;;;;;;;14.18;3.67;;;;;;;14.19;100.00;101458.66;4975352;28;20236;-52
2022/08/28 00:44:09;;;;;;;15.65;3.90;;;;;;;14.24;100.00;101462.97;4976890;28;20268;-49
2022/08/28 00:46:36;;;;;;;12.38;3.38;;;;;;;14.31;100.00;101461.75;4972543;28;20196;-50
2022/08/28 00:49:02;;;;;;;13.32;3.95;;;;;;;14.25;100.00;101456.63;4985606;28;20190;-48
2022/08/28 00:54:12;;;;;;;14.80;4.20;;;;;;;14.05;100.00;101455.66;4981176;28;20212;-47
2022/08/28 00:56:39;;;;;;;18.77;4.13;;;;;;;14.18;100.00;101456.91;4972918;28;20182;-50
2022/08/28 00:59:09;;;;;;;15.32;3.65;;;;;;;14.14;100.00;101466.06;4972583;28;20196;-50
2022/08/28 01:01:35;;;;;;;15.70;4.18;;;;;;;14.18;100.00;101456.03;4972786;28;20197;-48
2022/08/28 01:04:04;;;;;;;19.00;3.92;;;;;;;14.18;100.00;101456.03;4972080;28;20185;-48
2022/08/28 01:06:31;;;;;;;14.65;4.00;;;;;;;14.07;100.00;101451.09;4971136;28;20671;-53
2022/08/28 01:08:57;;;;;;;13.60;3.85;;;;;;;14.10;100.00;101450.97;4977124;28;20185;-49
2022/08/28 01:11:22;;;;;;;15.32;4.22;;;;;;;14.12;100.00;101453.59;4976360;28;20676;-48
2022/08/28 01:13:49;;;;;;;20.25;4.07;;;;;;;14.11;100.00;101452.72;4980030;28;20182;-48
2022/08/28 01:16:17;;;;;;;16.63;4.05;;;;;;;14.05;100.00;101469.16;4978913;28;20296;-49
2022/08/28 01:18:45;;;;;;;15.95;3.65;;;;;;;13.93;100.00;101465.16;4973060;28;20200;-48
2022/08/28 01:21:19;;;;;;;21.48;3.53;;;;;;;13.89;100.00;101462.66;4972657;28;20209;-48
2022/08/28 01:23:45;;;;;;;15.82;3.97;;;;;;;13.99;100.00;101464.00;4981201;28;20205;-50
2022/08/28 01:26:10;;;;;;;16.60;4.57;;;;;;;13.98;100.00;101457.75;4981277;28;20197;-49
2022/08/28 01:28:36;;;;;;;16.42;4.22;;;;;;;13.97;100.00;101457.81;4972374;28;20177;-52
2022/08/28 01:31:02;;;;;;;18.77;3.88;;;;;;;13.88;100.00;101472.53;4971940;28;20603;-50
2022/08/28 01:33:27;;;;;;;19.48;4.93;;;;;;;13.95;100.00;101467.78;4972271;28;20190;-50
2022/08/28 01:35:52;;;;;;;20.27;3.85;;;;;;;13.94;100.00;101476.81;4972664;28;20202;-49
2022/08/28 01:38:18;;;;;;;14.88;4.53;;;;;;;13.93;100.00;101467.84;4972900;28;20221;-47
2022/08/28 01:40:46;;;;;;;17.95;4.50;;;;;;;13.85;100.00;101467.28;4972982;28;20186;-49
2022/08/28 01:43:15;;;;;;;14.18;3.95;;;;;;;13.83;100.00;101474.56;4975538;28;20877;-48
2022/08/28 01:45:45;;;;;;;21.67;4.07;;;;;;;13.89;100.00;101470.75;4974361;28;20696;-50
2022/08/28 01:48:12;;;;;;;16.55;4.25;;;;;;;13.91;100.00;101464.34;4973495;28;20262;-49
2022/08/28 01:50:38;;;;;;;16.40;4.43;;;;;;;13.91;100.00;101468.88;4972839;28;20590;-49
2022/08/28 01:53:05;;;;;;;21.15;4.60;;;;;;;13.93;100.00;101467.00;4971959;28;20181;-48
2022/08/28 01:55:34;;;;;;;13.27;3.83;;;;;;;13.98;100.00;101464.97;4972516;28;20210;-49
2022/08/28 01:58:01;;;;;;;16.20;3.92;;;;;;;13.95;100.00;101470.47;4972822;28;20194;-46
2022/08/28 02:00:27;;;;;;;13.57;3.90;;;;;;;14.09;100.00;101472.59;4972267;28;20167;-49
2022/08/28 02:02:55;;;;;;;24.33;4.35;;;;;;;13.94;100.00;101472.28;4970650;28;20178;-47
2022/08/28 02:05:27;;;;;;;13.70;3.55;;;;;;;13.93;100.00;101478.63;4979278;28;20292;-47
2022/08/28 02:07:52;;;;;;;18.02;3.58;;;;;;;13.80;100.00;101477.41;4975292;28;20218;-48
2022/08/28 02:10:23;;;;;;;17.63;4.32;;;;;;;13.81;100.00;101477.31;4981741;28;20629;-47
2022/08/28 02:12:49;;;;;;;15.30;4.28;;;;;;;13.85;100.00;101475.38;4982303;28;20181;-48
2022/08/28 02:15:14;;;;;;;20.15;4.43;;;;;;;13.87;100.00;101476.19;4980981;28;20260;-47
2022/08/28 02:17:40;;;;;;;15.05;4.00;;;;;;;13.94;100.00;101490.28;4977961;28;20183;-48
2022/08/28 02:20:06;;;;;;;14.70;4.15;;;;;;;13.86;100.00;101481.63;4983641;28;20186;-47
2022/08/28 02:22:32;;;;;;;18.50;4.10;;;;;;;13.71;100.00;101484.03;4972038;28;20301;-46
2022/08/28 02:24:57;;;;;;;16.33;4.22;;;;;;;13.71;100.00;101472.38;4979118;28;20228;-47
2022/08/28 02:27:23;;;;;;;16.25;3.75;;;;;;;13.55;100.00;101470.28;4986390;28;20185;-48
2022/08/28 02:29:48;;;;;;;18.80;4.75;;;;;;;13.64;100.00;101492.41;4981264;28;20185;-45
2022/08/28 02:32:14;;;;;;;12.85;3.97;;;;;;;13.63;100.00;101496.06;4980747;28;20189;-48
2022/08/28 02:34:42;;;;;;;17.15;4.07;;;;;;;13.58;100.00;101488.16;4977815;28;20573;-49
2022/08/28 02:37:08;;;;;;;13.35;4.15;;;;;;;13.54;100.00;101484.72;4988048;28;20193;-49
2022/08/28 02:39:34;;;;;;;16.35;4.35;;;;;;;13.50;100.00;101488.47;4975443;28;20252;-49
2022/08/28 02:42:00;;;;;;;21.42;4.40;;;;;;;13.56;100.00;101485.53;4983891;28;20273;-47
2022/08/28 02:44:25;;;;;;;11.55;3.78;;;;;;;13.64;100.00;101482.50;4978227;28;20673;-47
2022/08/28 02:46:51;;;;;;;15.18;3.67;;;;;;;13.64;100.00;101492.41;4971989;28;20189;-49
2022/08/28 02:49:17;;;;;;;15.77;4.13;;;;;;;13.56;100.00;101485.53;4985564;28;20189;-47
2022/08/28 02:51:42;;;;;;;20.00;4.50;;;;;;;13.52;100.00;101485.72;4977490;28;20177;-47
2022/08/28 02:54:08;;;;;;;11.65;3.20;;;;;;;13.64;100.00;101478.94;4975111;28;20212;-47
2022/08/28 02:56:33;;;;;;;18.45;4.40;;;;;;;13.60;100.00;101480.91;4976900;28;20284;-47
2022/08/28 02:58:59;;;;;;;18.70;4.18;;;;;;;13.59;100.00;101473.75;4987224;28;20596;-48
2022/08/28 03:01:24;;;;;;;19.85;4.55;;;;;;;13.52;100.00;101477.63;4978217;28;20271;-49
2022/08/28 03:03:50;;;;;;;19.67;4.32;;;;;;;13.56;100.00;101479.28;4978902;28;20245;-46
2022/08/28 03:06:15;;;;;;;17.33;4.43;;;;;;;13.53;100.00;101468.59;4984730;28;20244;-47
2022/08/28 03:08:43;;;;;;;16.35;3.80;;;;;;;13.59;100.00;101471.06;4974073;28;20245;-49
2022/08/28 03:11:09;;;;;;;14.10;3.97;;;;;;;13.56;100.00;101473.88;4984710;28;20264;-48
2022/08/28 03:13:35;;;;;;;16.42;3.85;;;;;;;13.52;100.00;101478.50;4983942;28;20745;-47
2022/08/28 03:16:00;;;;;;;15.75;3.83;;;;;;;13.49;100.00;101481.34;4982737;28;20285;-46
2022/08/28 03:18:31;;;;;;;16.05;4.72;;;;;;;13.47;100.00;101480.53;4983029;28;20649;-45
2022/08/28 03:20:58;;;;;;;17.35;3.80;;;;;;;13.37;100.00;101473.75;4971413;28;20280;-48
2022/08/28 03:23:26;;;;;;;21.33;4.25;;;;;;;13.32;100.00;101473.06;4972549;28;20249;-48
2022/08/28 03:25:56;;;;;;;15.18;4.25;;;;;;;13.37;100.00;101466.53;4974071;28;20596;-48
2022/08/28 03:28:22;;;;;;;15.68;4.25;;;;;;;13.35;100.00;101478.31;4977826;28;20182;-47
2022/08/28 03:30:48;;;;;;;21.58;4.90;;;;;;;13.29;100.00;101470.47;4970739;28;20182;-47
2022/08/28 03:33:14;;;;;;;15.15;3.97;;;;;;;13.32;100.00;101476.63;4978306;28;20257;-48
2022/08/28 03:35:39;;;;;;;18.92;4.63;;;;;;;13.29;100.00;101463.25;4988687;28;20684;-46
2022/08/28 03:38:05;;;;;;;17.90;4.10;;;;;;;13.33;100.00;101464.03;4983830;28;20186;-45
2022/08/28 03:40:31;;;;;;;14.43;3.80;;;;;;;13.38;100.00;101468.31;4975899;28;20181;-47
2022/08/28 03:42:56;;;;;;;14.95;3.80;;;;;;;13.52;100.00;101462.34;4990225;28;20166;-48
2022/08/28 03:45:22;;;;;;;15.63;3.80;;;;;;;13.52;100.00;101466.88;4980203;28;20194;-49
2022/08/28 03:47:48;;;;;;;17.25;4.15;;;;;;;13.49;100.00;101459.81;4969894;28;20257;-46
2022/08/28 03:50:15;;;;;;;19.08;4.15;;;;;;;13.33;100.00;101461.34;4973882;28;20249;-47
2022/08/28 03:52:41;;;;;;;16.05;3.53;;;;;;;13.26;100.00;101462.50;4976805;28;20174;-48
2022/08/28 03:55:09;;;;;;;19.65;4.22;;;;;;;13.28;100.00;101464.22;4988757;28;20255;-46
2022/08/28 03:57:35;;;;;;;15.52;3.97;;;;;;;13.31;100.00;101464.06;4993853;28;20170;-46
2022/08/28 04:00:03;;;;;;;13.07;4.15;;;;;;;13.41;100.00;101475.38;4993256;28;20196;-47
2022/08/28 04:02:37;;;;;;;21.02;4.05;;;;;;;13.41;100.00;101467.31;4979580;28;20706;-48
2022/08/28 04:05:04;;;;;;;14.95;4.28;;;;;;;13.35;100.00;101472.91;4993915;28;20189;-47
2022/08/28 04:07:29;;;;;;;14.38;3.88;;;;;;;13.42;100.00;101469.03;4986185;28;20563;-46
2022/08/28 04:09:55;;;;;;;11.63;3.80;;;;;;;13.32;100.00;101464.97;4974351;28;20170;-48
2022/08/28 04:12:29;;;;;;;21.65;4.53;;;;;;;13.36;100.00;101461.22;4959813;28;20838;-44
2022/08/28 04:14:56;;;;;;;24.70;4.78;;;;;;;13.29;100.00;101465.94;4973475;28;20213;-47
2022/08/28 04:17:22;;;;;;;14.77;3.85;;;;;;;13.24;100.00;101470.63;4974963;28;20666;-45
2022/08/28 04:19:51;;;;;;;18.70;3.97;;;;;;;13.14;100.00;101470.09;4976842;28;20173;-47
2022/08/28 04:22:16;;;;;;;16.50;4.13;;;;;;;13.23;100.00;101470.66;4985415;28;20197;-43
2022/08/28 04:24:42;;;;;;;15.93;4.18;;;;;;;13.04;100.00;101465.13;4981209;28;20293;-46
2022/08/28 04:27:07;;;;;;;13.20;3.50;;;;;;;13.19;100.00;101473.50;4973666;28;20563;-45
2022/08/28 04:29:33;;;;;;;16.90;4.03;;;;;;;13.01;100.00;101465.22;4984750;28;20649;-41
2022/08/28 04:31:58;;;;;;;14.50;3.95;;;;;;;13.00;100.00;101467.06;4977780;28;20269;-44
2022/08/28 04:34:24;;;;;;;17.63;4.13;;;;;;;12.97;100.00;101461.81;4976681;28;20209;-43
2022/08/28 04:36:50;;;;;;;14.82;4.07;;;;;;;13.06;100.00;101457.88;4974392;28;20209;-44
2022/08/28 04:39:15;;;;;;;16.98;4.00;;;;;;;12.98;100.00;101461.72;4987001;28;20197;-45
2022/08/28 04:41:41;;;;;;;14.38;4.10;;;;;;;12.90;100.00;101474.63;4992062;28;20258;-46
2022/08/28 04:44:06;;;;;;;13.13;3.72;;;;;;;12.91;100.00;101475.47;4984606;28;20548;-46
2022/08/28 04:46:32;;;;;;;15.95;4.15;;;;;;;12.70;100.00;101469.97;4992393;28;20177;-45
2022/08/28 04:48:58;;;;;;;18.10;3.92;;;;;;;12.73;100.00;101477.91;4980411;28;20181;-42
2022/08/28 04:51:25;;;;;;;16.33;4.30;;;;;;;12.76;100.00;101472.41;4978471;28;20217;-44
2022/08/28 04:53:51;;;;;;;15.73;4.15;;;;;;;12.78;100.00;101467.84;4977895;28;20182;-43
2022/08/28 04:56:17;;;;;;;16.75;4.20;;;;;;;12.85;100.00;101483.78;4977723;28;20543;-48
2022/08/28 04:58:43;;;;;;;12.15;3.90;;;;;;;12.82;100.00;101481.22;4982155;28;20173;-47
2022/08/28 05:01:18;;;;;;;19.90;5.25;;;;;;;12.92;100.00;101477.22;4976508;28;20196;-46
2022/08/28 05:03:45;;;;;;;16.17;3.97;;;;;;;13.30;100.00;101477.63;4978531;28;20180;-46
2022/08/28 05:06:13;;;;;;;16.85;4.30;;;;;;;13.35;100.00;101468.41;4980044;28;20284;-43
2022/08/28 05:08:39;;;;;;;14.75;4.88;;;;;;;13.77;100.00;101473.00;4979996;28;20644;-45
2022/08/28 05:11:13;;;;;;;15.52;4.40;;;;;;;14.06;100.00;101478.09;4984387;28;20177;-42
2022/08/28 05:13:39;;;;;;;12.10;3.33;;;;;;;14.14;100.00;101470.56;4985878;28;20189;-42
2022/08/28 05:16:05;;;;;;;11.40;3.45;;;;;;;14.34;100.00;101470.59;4986912;28;20197;-43
2022/08/28 05:18:31;;;;;;;17.30;3.97;;;;;;;14.46;99.93;101469.19;4981318;28;20202;-42
2022/08/28 05:20:56;;;;;;;16.38;4.45;;;;;;;14.57;98.92;101477.69;4984608;28;20249;-45
2022/08/28 05:23:22;;;;;;;12.80;4.13;;;;;;;14.52;98.55;101474.31;4977696;28;20260;-44
2022/08/28 05:25:47;;;;;;;13.10;4.47;;;;;;;14.83;97.83;101467.56;4979645;28;20194;-44
2022/08/28 05:28:18;;;;;;;12.77;3.90;;;;;;;15.01;96.32;101469.38;4979473;28;20178;-45
2022/08/28 05:30:43;;;;;;;14.88;3.85;;;;;;;15.04;95.80;101476.47;4979007;28;20263;-43
2022/08/28 05:33:12;;;;;;;12.90;4.18;;;;;;;15.49;94.80;101477.94;4974312;28;20449;-46
2022/08/28 05:35:41;;;;;;;14.82;4.13;;;;;;;15.47;93.10;101470.88;4973806;28;20281;-45
2022/08/28 05:38:07;;;;;;;20.35;4.45;;;;;;;15.79;91.92;101472.03;4986228;28;20185;-47
2022/08/28 05:40:39;;;;;;;20.30;3.85;;;;;;;16.05;90.85;101478.81;4986748;28;20185;-47
2022/08/28 05:43:05;;;;;;;11.57;4.05;;;;;;;16.20;89.58;101475.34;4987155;28;20177;-43
2022/08/28 05:45:30;;;;;;;13.02;4.10;;;;;;;15.96;88.61;101482.88;4984093;28;20200;-46
2022/08/28 05:47:56;;;;;;;18.15;4.50;;;;;;;16.21;88.94;101492.44;4978421;28;20289;-47
2022/08/28 05:50:21;;;;;;;14.27;4.10;;;;;;;16.31;87.93;101491.00;4979031;28;20181;-47
2022/08/28 05:52:47;;;;;;;12.82;4.03;;;;;;;15.98;87.95;101508.00;4977783;28;20237;-45
2022/08/28 05:55:13;;;;;;;11.75;3.60;;;;;;;16.46;87.21;101494.72;4978796;28;20253;-45
2022/08/28 05:57:39;;;;;;;10.95;3.55;;;;;;;16.56;85.61;101498.69;4978579;28;20244;-47
2022/08/28 06:00:06;;;;;;;12.48;3.78;;;;;;;16.64;84.29;101492.91;4973424;28;20181;-46
2022/08/28 06:02:33;;;;;;;10.88;3.50;;;;;;;16.61;85.31;101490.34;4974062;28;20665;-46
2022/08/28 06:04:59;;;;;;;11.75;3.85;;;;;;;16.63;84.89;101492.00;4974389;28;20557;-46
2022/08/28 06:07:25;;;;;;;11.57;3.13;;;;;;;16.93;84.54;101487.78;4975277;28;20237;-47
2022/08/28 06:09:50;;;;;;;11.93;3.53;;;;;;;16.98;83.31;101486.56;4978779;28;20298;-46
2022/08/28 06:12:16;;;;;;;18.00;3.72;;;;;;;16.79;82.65;101492.09;4978237;28;20596;-46
2022/08/28 06:14:41;;;;;;;9.77;3.50;;;;;;;17.12;83.01;101485.81;4977445;28;20261;-46
2022/08/28 06:17:07;;;;;;;17.17;4.22;;;;;;;16.48;82.95;101495.53;4979457;28;20188;-46
2022/08/28 06:19:34;;;;;;;12.15;3.17;;;;;;;17.18;83.12;101488.16;4978760;28;20197;-45
2022/08/28 06:22:02;;;;;;;12.02;3.53;;;;;;;17.15;82.07;101492.91;4978664;28;20279;-45
2022/08/28 06:24:29;;;;;;;13.32;3.85;;;;;;;17.13;82.13;101494.81;4976097;28;20698;-47
2022/08/28 06:26:58;;;;;;;13.73;3.25;;;;;;;17.41;81.80;101494.16;4971106;28;20240;-47
2022/08/28 06:29:26;;;;;;;11.00;3.58;;;;;;;17.43;81.68;101498.53;4949118;28;20257;-46
2022/08/28 06:31:58;;;;;;;11.32;3.67;;;;;;;17.63;80.59;101501.94;4977966;28;20560;-46
2022/08/28 06:34:25;;;;;;;12.13;3.72;;;;;;;17.67;79.96;101504.38;4959586;28;20245;-46
2022/08/28 06:36:50;;;;;;;16.55;4.32;;;;;;;17.93;78.64;101499.31;4983316;28;20224;-45
2022/08/28 06:39:16;;;;;;;14.77;3.78;;;;;;;17.96;79.05;101499.13;4972856;28;20280;-46
2022/08/28 06:41:42;;;;;;;12.80;3.78;;;;;;;18.12;78.48;101508.09;4976126;28;20379;-47
2022/08/28 06:44:13;;;;;;;18.13;4.43;;;;;;;17.68;78.90;101507.97;4981428;28;20186;-46
2022/08/28 06:46:39;;;;;;;19.05;8.32;;;;;;;17.64;78.81;101511.78;4979015;28;20235;-46
2022/08/28 06:49:06;;;;;;;19.00;9.52;;;;;;;17.98;79.90;101507.19;4977427;28;20296;-45
2022/08/28 06:51:33;;;;;;;17.65;6.07;;;;;;;18.10;78.85;101506.44;4973119;28;20174;-46
2022/08/28 06:53:59;;;;;;;15.15;4.13;;;;;;;18.66;77.65;101512.16;4974488;28;20943;-45
2022/08/28 06:56:25;;;;;;;15.07;3.13;;;;;;;18.52;77.60;101505.72;4951291;28;20220;-45
2022/08/28 06:58:50;;;;;;;12.75;4.32;;;;;;;18.40;76.17;101516.44;4963952;28;20233;-46
2022/08/28 07:01:22;;;;;;;10.60;3.55;;;;;;;18.84;76.65;101505.59;4981147;28;20181;-46
2022/08/28 07:03:50;;;;;;;11.48;3.42;;;;;;;19.12;75.65;101506.59;4979350;28;20169;-45
2022/08/28 07:06:15;;;;;;;15.30;3.90;;;;;;;19.06;74.92;101496.97;4979308;28;20236;-46
2022/08/28 07:08:42;;;;;;;21.55;3.80;;;;;;;18.70;75.01;101508.28;4979670;28;20216;-46
2022/08/28 07:11:14;;;;;;;14.88;3.63;;;;;;;18.18;76.32;101512.31;4980291;28;20177;-46
2022/08/28 07:13:41;;;;;;;14.73;4.35;;;;;;;18.57;75.79;101508.16;4974247;28;20202;-46
2022/08/28 07:16:07;;;;;;;14.95;3.40;;;;;;;19.00;76.74;101504.66;4972613;28;20248;-47
2022/08/28 07:18:33;;;;;;;16.73;4.10;;;;;;;18.31;76.75;101517.88;4974458;28;20189;-46
2022/08/28 07:20:59;;;;;;;13.63;3.88;;;;;;;18.54;76.85;101511.03;4976310;28;20679;-44
2022/08/28 07:23:30;;;;;;;10.88;3.63;;;;;;;18.88;75.07;101498.16;4977422;28;20176;-45
2022/08/28 07:25:55;;;;;;;12.30;3.60;;;;;;;18.84;74.16;101500.19;4990232;28;20582;-45
2022/08/28 07:28:21;;;;;;;14.85;3.72;;;;;;;18.96;73.71;101497.66;4983471;28;20192;-46
2022/08/28 07:31:12;;;;;;;14.13;3.85;;;;;;;18.90;74.24;101505.22;4985328;28;20200;-46
2022/08/28 07:33:38;;;;;;;10.38;3.60;;;;;;;19.10;72.90;101508.53;4982904;28;20278;-45
2022/08/28 07:36:10;;;;;;;12.90;3.53;;;;;;;19.20;72.64;101500.66;4983133;28;20307;-46
2022/08/28 07:38:36;;;;;;;12.27;3.50;;;;;;;19.27;72.18;101502.91;4978663;28;20546;-46
2022/08/28 07:41:10;;;;;;;11.65;3.55;;;;;;;19.20;72.09;101512.44;4983612;28;20186;-46
2022/08/28 07:46:20;;;;;;;13.05;3.92;;;;;;;18.99;71.38;101501.06;4981116;28;20212;-44
2022/08/28 07:48:46;;;;;;;15.10;3.97;;;;;;;18.86;72.47;101517.25;4986336;28;20574;-46
2022/08/28 07:51:12;;;;;;;13.43;3.92;;;;;;;19.10;72.47;101503.97;4983746;28;20205;-48
2022/08/28 07:53:38;;;;;;;10.77;3.70;;;;;;;18.30;73.34;101518.81;4982678;28;20268;-51
2022/08/28 07:56:04;;;;;;;15.95;4.20;;;;;;;18.58;74.35;101517.16;4985751;28;20677;-47
2022/08/28 07:58:30;;;;;;;12.90;3.53;;;;;;;18.66;73.70;101513.03;4988942;28;20231;-52
2022/08/28 08:00:57;;;;;;;12.45;3.60;;;;;;;18.49;72.94;101524.03;4992088;28;20675;-51
2022/08/28 08:03:23;;;;;;;17.50;3.92;;;;;;;19.26;72.04;101513.84;4977262;28;20234;-50
2022/08/28 08:06:00;;;;;;;13.98;4.20;;;;;;;20.16;69.59;101505.22;4976047;28;20572;-52
2022/08/28 08:08:26;;;;;;;12.05;3.75;;;;;;;19.31;70.33;101512.59;4988436;28;20196;-51
2022/08/28 08:11:04;;;;;;;10.85;3.85;;;;;;;19.65;69.93;101506.81;4984889;28;20182;-49
2022/08/28 08:13:30;;;;;;;9.73;3.60;;;;;;;20.26;68.46;101507.31;4975992;28;20543;-50
2022/08/28 08:16:05;;;;;;;12.68;3.85;;;;;;;20.40;67.27;101503.63;4980367;28;20210;-48
2022/08/28 08:18:32;;;;;;;11.55;3.78;;;;;;;19.37;69.21;101510.47;4980946;28;20656;-49
2022/08/28 08:20:57;;;;;;;12.00;3.60;;;;;;;19.17;70.47;101507.16;4979364;28;20201;-51
2022/08/28 08:23:23;;;;;;;11.98;3.50;;;;;;;18.86;70.75;101522.69;4974597;28;20173;-48
2022/08/28 08:25:59;;;;;;;11.48;3.90;;;;;;;19.19;70.80;101516.09;4987382;28;20213;-51
2022/08/28 08:28:26;;;;;;;14.13;3.55;;;;;;;19.22;70.31;101517.75;4980278;28;20184;-45
2022/08/28 08:31:19;;;;;;;14.75;3.78;;;;;;;18.73;71.49;101525.25;4978147;28;20189;-50
2022/08/28 08:33:47;;;;;;;16.45;3.75;;;;;;;18.24;72.14;101527.34;4974227;28;20538;-51
2022/08/28 08:36:14;;;;;;;10.25;3.85;;;;;;;18.70;72.37;101538.16;4977321;28;20283;-49
2022/08/28 08:38:40;;;;;;;10.68;3.63;;;;;;;19.29;69.76;101538.13;4980843;28;20201;-50
2022/08/28 08:41:18;;;;;;;12.93;3.40;;;;;;;19.88;68.02;101527.09;4980659;28;20185;-51
2022/08/28 08:44:06;;;;;;;11.32;3.83;;;;;;;19.80;67.59;101535.75;4975532;28;20186;-49
2022/08/28 08:46:48;;;;;;;14.40;4.50;;;;;;;20.65;66.12;101527.38;4986788;28;20185;-50
2022/08/28 08:49:18;;;;;;;15.75;3.92;;;;;;;20.18;65.84;101529.59;4982253;28;20293;-48
2022/08/28 08:51:49;;;;;;;9.02;3.60;;;;;;;19.42;67.51;101538.22;4981990;28;20174;-49
2022/08/28 08:54:18;;;;;;;13.07;3.85;;;;;;;19.13;69.31;101543.66;4982274;28;20224;-49
2022/08/28 08:56:46;;;;;;;11.02;3.90;;;;;;;20.08;67.14;101537.50;4975547;28;20240;-49
2022/08/28 08:59:22;;;;;;;10.75;3.50;;;;;;;20.31;65.93;101541.41;4979870;28;20551;-48
2022/08/28 09:02:13;;;;;;;10.05;3.13;;;;;;;20.00;66.56;101539.88;4980876;28;20337;-50
2022/08/28 09:04:41;;;;;;;9.85;3.65;;;;;;;19.07;68.19;101539.50;4974607;28;20390;-49
2022/08/28 09:07:18;;;;;;;11.93;3.70;;;;;;;19.18;69.14;101546.09;4977379;28;20601;-49
2022/08/28 09:09:48;;;;;;;12.30;3.67;;;;;;;20.09;67.44;101539.25;4981309;28;20265;-50
2022/08/28 09:12:21;;;;;;;12.55;3.63;;;;;;;19.42;67.61;101539.09;4980545;28;20194;-50
2022/08/28 09:15:03;;;;;;;11.93;3.50;;;;;;;19.48;67.32;101541.44;4976910;28;20622;-49
2022/08/28 09:17:37;;;;;;;12.55;3.72;;;;;;;19.82;66.90;101532.94;4973590;28;20189;-49
2022/08/28 09:20:08;;;;;;;14.43;3.80;;;;;;;20.05;65.41;101537.72;4977911;28;20243;-49
2022/08/28 09:22:34;;;;;;;10.50;3.45;;;;;;;20.32;65.19;101540.44;4976758;28;20189;-50
2022/08/28 09:25:00;;;;;;;11.48;3.95;;;;;;;19.56;67.59;101530.91;4975986;28;20676;-51
2022/08/28 09:27:31;;;;;;;13.63;3.45;;;;;;;19.50;67.26;101539.47;4973523;28;20182;-50
2022/08/28 09:30:06;;;;;;;10.07;3.85;;;;;;;20.25;65.75;101530.09;4976677;28;20435;-51
2022/08/28 09:32:37;;;;;;;12.82;3.80;;;;;;;19.71;66.96;101534.50;4983056;28;20177;-50
2022/08/28 09:35:03;;;;;;;10.70;3.20;;;;;;;20.89;65.45;101522.91;4977670;28;20217;-49
2022/08/28 09:37:32;;;;;;;10.90;3.08;;;;;;;21.18;64.19;101523.53;4973556;28;20538;-50
2022/08/28 09:43:25;;;;;;;10.38;3.63;;;;;;;20.05;65.34;101526.84;4986379;28;20580;-49
2022/08/28 09:43:26;;;;;;;11.70;3.63;;;;;;;20.72;64.03;101525.94;4985266;28;20181;-49
2022/08/28 09:46:17;;;;;;;12.23;3.85;;;;;;;21.43;62.58;101518.19;4975211;28;20855;-50
2022/08/28 09:48:45;;;;;;;11.82;3.67;;;;;;;22.01;61.12;101519.31;4970828;28;20632;-49
2022/08/28 09:51:19;;;;;;;12.40;3.85;;;;;;;20.85;61.82;101518.66;4981074;28;20636;-49
2022/08/28 09:53:51;;;;;;;9.13;3.63;;;;;;;20.55;61.50;101524.34;4984734;28;20168;-49
2022/08/28 09:56:16;;;;;;;9.88;3.70;;;;;;;20.22;62.96;101533.00;4981835;28;20217;-49
2022/08/28 09:58:52;;;;;;;7.28;3.15;;;;;;;20.19;62.96;101527.75;4977993;28;20182;-53
2022/08/28 10:01:36;;;;;;;8.52;3.53;;;;;;;20.33;63.13;101527.69;4984313;28;20657;-48
2022/08/28 10:04:10;;;;;;;10.30;3.50;;;;;;;21.14;60.90;101519.31;4981132;28;20177;-48
2022/08/28 10:06:36;;;;;;;11.07;3.33;;;;;;;21.19;60.67;101522.56;4977490;28;20214;-47
2022/08/28 10:09:17;;;;;;;9.95;3.55;;;;;;;21.17;60.45;101516.38;4981132;28;20757;-47
2022/08/28 10:11:55;;;;;;;8.75;3.20;;;;;;;20.83;59.85;101525.19;4983667;28;20639;-48
2022/08/28 10:14:43;;;;;;;12.55;3.70;;;;;;;21.15;59.90;101523.78;4983157;28;20215;-51
2022/08/28 10:17:27;;;;;;;9.82;3.45;;;;;;;21.85;58.76;101511.44;4980566;28;20198;-51
2022/08/28 10:20:30;;;;;;;13.95;4.07;;;;;;;21.83;59.57;101515.28;4979271;28;20553;-47
2022/08/28 10:23:21;;;;;;;7.95;2.90;;;;;;;21.78;59.21;101513.75;4978278;28;20219;-47
2022/08/28 10:26:07;;;;;;;10.48;3.50;;;;;;;22.50;57.68;101507.44;4987379;28;20209;-47
2022/08/28 10:28:42;;;;;;;15.07;3.70;;;;;;;21.95;57.58;101517.06;4980199;28;20177;-51
2022/08/28 10:31:07;;;;;;;10.63;3.90;;;;;;;21.94;57.90;101515.34;4977650;28;20189;-49
2022/08/28 10:33:53;;;;;;;13.52;3.42;;;;;;;21.39;58.43;101515.69;4976745;28;20656;-46
2022/08/28 10:36:27;;;;;;;8.82;3.17;;;;;;;21.74;58.99;101517.69;4974929;28;20217;-46
2022/08/28 10:39:10;;;;;;;11.65;3.60;;;;;;;21.52;59.60;101520.28;4977267;28;20172;-47
2022/08/28 10:41:58;;;;;;;8.88;3.17;;;;;;;21.33;59.52;101517.97;4974949;28;20308;-48
2022/08/28 10:44:51;;;;;;;14.40;3.63;;;;;;;21.06;58.58;101529.03;4986078;28;20205;-49
2022/08/28 10:47:19;;;;;;;11.20;3.55;;;;;;;21.58;58.70;101512.50;4975971;28;20679;-46
2022/08/28 10:49:49;;;;;;;11.77;3.42;;;;;;;21.85;58.12;101505.13;4979196;28;20541;-47
2022/08/28 10:52:30;;;;;;;10.35;3.20;;;;;;;22.13;57.50;101510.22;4979123;28;20534;-49
2022/08/28 10:55:11;;;;;;;10.85;2.95;;;;;;;22.32;55.23;101506.09;4982016;28;20255;-47
2022/08/28 10:57:46;;;;;;;8.27;3.03;;;;;;;22.18;56.02;101502.53;4979116;28;20185;-47
2022/08/28 11:00:22;;;;;;;9.52;3.40;;;;;;;22.58;54.79;101501.34;4980814;28;20177;-47
2022/08/28 11:02:57;;;;;;;7.05;2.88;;;;;;;22.19;55.25;101504.31;4981893;28;20267;-46
2022/08/28 11:05:26;;;;;;;14.80;3.30;;;;;;;22.07;55.54;101504.38;4983451;28;20205;-47
2022/08/28 11:07:56;;;;;;;8.43;3.25;;;;;;;22.54;55.16;101508.94;4983771;28;20690;-47
2022/08/28 11:10:27;;;;;;;6.90;3.08;;;;;;;22.45;55.50;101506.88;4986405;28;20215;-47
2022/08/28 11:12:53;;;;;;;9.15;3.13;;;;;;;22.92;55.18;101493.22;4982227;28;20192;-51
2022/08/28 11:15:28;;;;;;;12.93;3.30;;;;;;;23.15;53.53;101496.88;4983488;28;20220;-50
2022/08/28 11:18:07;;;;;;;9.52;3.05;;;;;;;23.43;52.92;101495.47;4992442;28;20208;-46
2022/08/28 11:20:34;;;;;;;9.60;3.28;;;;;;;23.22;54.22;101490.78;4980534;28;20181;-50
2022/08/28 11:23:22;;;;;;;10.75;3.55;;;;;;;22.90;54.49;101495.22;4989748;28;20192;-46
2022/08/28 11:25:57;;;;;;;8.50;2.88;;;;;;;22.53;55.27;101504.44;4978986;28;20209;-47
2022/08/28 11:28:23;;;;;;;8.98;3.05;;;;;;;22.90;56.13;101509.75;4980072;28;20298;-47
2022/08/28 11:31:11;;;;;;;10.82;3.90;;;;;;;22.73;55.92;101513.78;4984702;28;20653;-46